Time;durP1;ratioP1;P1;durP2;ratioP2;P2;SDS_P1;SDS_P2;PMS_P1;PMS_P2;Temp;Humidity;BMP_temperature;BMP_pressure;BME280_temperature;BME280_humidity;BME280_pressure;Samples;Min_cycle;Max_cycle;Signal;HPM_P1;HPM_P2
2022/11/27 00:01:21;;;;;;;15.25;6.53;;;5.20;99.90;;;;;;5097615;28;20028;-65
2022/11/27 00:03:50;;;;;;;11.55;6.82;;;5.20;99.90;;;;;;5097532;28;20031;-65
2022/11/27 00:06:26;;;;;;;19.55;7.40;;;5.20;99.90;;;;;;5097532;28;20052;-65
2022/11/27 00:08:56;;;;;;;13.25;5.53;;;5.20;99.90;;;;;;5098217;28;20400;-65
2022/11/27 00:11:25;;;;;;;11.02;5.43;;;5.20;99.90;;;;;;5097373;28;20093;-65
2022/11/27 00:13:52;;;;;;;9.07;5.10;;;5.20;99.90;;;;;;5079345;28;20020;-65
2022/11/27 00:16:21;;;;;;;10.40;5.80;;;5.20;99.90;;;;;;5097880;28;20208;-65
2022/11/27 00:18:49;;;;;;;10.27;5.53;;;5.20;99.90;;;;;;5097649;28;20016;-65
2022/11/27 00:21:23;;;;;;;14.77;5.60;;;5.20;99.90;;;;;;5097227;28;20016;-65
2022/11/27 00:23:52;;;;;;;12.20;5.97;;;5.10;99.90;;;;;;5079218;28;20088;-65
2022/11/27 00:26:20;;;;;;;11.98;5.90;;;5.10;99.90;;;;;;5097161;28;20020;-65
2022/11/27 00:28:47;;;;;;;11.15;4.70;;;5.10;99.90;;;;;;5097316;28;20024;-65
2022/11/27 00:31:20;;;;;;;8.02;4.90;;;5.00;99.90;;;;;;5097584;28;20415;-65
2022/11/27 00:33:48;;;;;;;10.27;5.28;;;5.00;99.90;;;;;;5097404;28;20039;-65
2022/11/27 00:36:16;;;;;;;12.77;4.85;;;4.90;99.90;;;;;;5096988;28;20023;-65
2022/11/27 00:38:43;;;;;;;11.80;4.35;;;4.90;99.90;;;;;;5079153;28;20020;-65
2022/11/27 00:41:17;;;;;;;8.82;4.38;;;4.90;99.90;;;;;;5096881;28;20069;-65
2022/11/27 00:43:44;;;;;;;10.55;4.60;;;4.80;99.90;;;;;;5078938;28;20420;-65
2022/11/27 00:46:26;;;;;;;11.13;4.90;;;4.80;99.90;;;;;;5097403;28;20449;-65
2022/11/27 00:48:53;;;;;;;10.45;5.15;;;4.80;99.90;;;;;;5097392;28;20024;-65
2022/11/27 00:51:22;;;;;;;8.95;4.75;;;4.80;99.90;;;;;;5097348;28;20028;-65
2022/11/27 00:53:49;;;;;;;13.80;6.05;;;4.80;99.90;;;;;;5097064;28;20024;-65
2022/11/27 00:56:19;;;;;;;12.13;6.13;;;4.80;99.90;;;;;;5097044;28;20133;-65
2022/11/27 00:58:48;;;;;;;10.77;6.28;;;4.70;99.90;;;;;;5096598;28;20048;-65
2022/11/27 01:01:27;;;;;;;13.95;5.63;;;4.70;99.90;;;;;;5096687;28;20056;-65
2022/11/27 01:03:56;;;;;;;12.82;5.90;;;4.70;99.90;;;;;;5096462;28;20032;-65
2022/11/27 01:06:24;;;;;;;14.57;5.75;;;4.60;99.90;;;;;;5096615;28;20020;-65
2022/11/27 01:08:51;;;;;;;12.95;6.22;;;4.60;99.90;;;;;;5102677;28;20016;-65
2022/11/27 01:11:27;;;;;;;13.70;6.10;;;4.60;99.90;;;;;;5103948;28;20401;-65
2022/11/27 01:14:01;;;;;;;15.45;6.78;;;4.60;99.90;;;;;;5103415;28;20058;-65
2022/11/27 01:16:30;;;;;;;14.68;6.32;;;4.50;99.90;;;;;;5085484;28;20028;-65
2022/11/27 01:18:58;;;;;;;15.40;6.53;;;4.50;99.90;;;;;;5103243;28;20028;-65
2022/11/27 01:21:32;;;;;;;12.13;6.45;;;4.50;99.90;;;;;;5103270;28;20012;-65
2022/11/27 01:24:01;;;;;;;12.85;7.43;;;4.50;99.90;;;;;;5103946;28;20343;-65
2022/11/27 01:26:28;;;;;;;13.95;7.60;;;4.50;99.90;;;;;;5103517;28;20289;-65
2022/11/27 01:28:57;;;;;;;13.10;6.95;;;4.50;99.90;;;;;;5103526;28;20023;-65
2022/11/27 01:31:29;;;;;;;14.07;7.10;;;4.50;99.90;;;;;;5103164;28;20349;-65
2022/11/27 01:34:04;;;;;;;15.15;7.05;;;4.50;99.90;;;;;;5103553;28;20421;-65
2022/11/27 01:36:33;;;;;;;12.75;7.18;;;4.50;99.90;;;;;;5103063;28;20020;-65
2022/11/27 01:39:01;;;;;;;13.23;7.10;;;4.50;99.90;;;;;;5103091;28;20467;-65
2022/11/27 01:41:34;;;;;;;19.38;8.45;;;4.50;99.90;;;;;;5103071;28;20020;-65
2022/11/27 01:44:22;;;;;;;13.98;7.47;;;4.50;99.90;;;;;;5103783;28;20044;-65
2022/11/27 01:47:05;;;;;;;15.88;7.95;;;4.50;99.90;;;;;;5102957;28;20444;-65
2022/11/27 01:49:36;;;;;;;19.85;8.95;;;4.40;99.90;;;;;;5084969;28;20137;-65
2022/11/27 01:52:07;;;;;;;14.07;7.13;;;4.40;99.90;;;;;;5103034;28;20411;-65
2022/11/27 01:54:50;;;;;;;13.05;7.45;;;4.40;99.90;;;;;;5103646;28;20031;-65
2022/11/27 01:57:37;;;;;;;17.60;7.80;;;4.40;99.90;;;;;;5102755;28;20047;-65
2022/11/27 02:00:06;;;;;;;13.15;7.78;;;4.40;99.90;;;;;;5102833;28;20026;-65
2022/11/27 02:02:34;;;;;;;14.82;7.60;;;4.30;99.90;;;;;;5103039;28;20027;-65
2022/11/27 02:05:01;;;;;;;18.55;7.55;;;4.30;99.90;;;;;;5102811;28;20066;-65
2022/11/27 02:07:28;;;;;;;16.17;7.63;;;4.30;99.90;;;;;;5103410;28;20099;-65
2022/11/27 02:09:56;;;;;;;18.40;8.40;;;4.30;99.90;;;;;;5084811;28;20020;-65
2022/11/27 02:12:52;;;;;;;16.02;7.28;;;4.30;99.90;;;;;;5103362;28;20081;-65
2022/11/27 02:15:37;;;;;;;13.55;6.57;;;4.30;99.90;;;;;;5103222;28;20028;-65
2022/11/27 02:18:24;;;;;;;12.57;7.25;;;4.30;99.90;;;;;;5102751;28;20020;-65
2022/11/27 02:21:16;;;;;;;17.55;7.38;;;4.30;99.90;;;;;;5080893;28;20047;-65
2022/11/27 02:24:01;;;;;;;13.68;8.02;;;4.30;99.90;;;;;;5099473;28;20027;-65
2022/11/27 02:26:43;;;;;;;17.85;8.48;;;4.30;99.90;;;;;;5099443;28;20016;-65
2022/11/27 02:29:13;;;;;;;15.73;8.13;;;4.30;99.90;;;;;;5099704;28;20034;-65
2022/11/27 02:32:04;;;;;;;12.70;6.93;;;4.30;99.90;;;;;;5099938;28;20024;-65
2022/11/27 02:34:47;;;;;;;14.20;7.78;;;4.20;99.90;;;;;;5099163;28;20016;-65
2022/11/27 02:37:27;;;;;;;12.07;7.25;;;4.20;99.90;;;;;;5099814;28;20072;-65
2022/11/27 02:40:16;;;;;;;15.57;8.07;;;4.20;99.90;;;;;;5099340;28;20027;-65
2022/11/27 02:42:54;;;;;;;26.75;8.40;;;4.20;99.90;;;;;;5099177;28;20020;-65
2022/11/27 02:45:46;;;;;;;15.63;6.72;;;4.20;99.90;;;;;;5099036;28;20043;-65
2022/11/27 02:48:18;;;;;;;19.95;7.75;;;4.10;99.90;;;;;;5081251;28;20024;-65
2022/11/27 02:50:48;;;;;;;16.30;7.75;;;4.10;99.90;;;;;;5098951;28;20020;-65
2022/11/27 02:53:23;;;;;;;26.05;9.07;;;4.00;99.90;;;;;;5099462;28;20173;-65
2022/11/27 02:55:52;;;;;;;16.83;7.82;;;4.00;99.90;;;;;;5080877;28;20324;-65
2022/11/27 02:58:24;;;;;;;17.55;8.18;;;4.00;99.90;;;;;;5098914;28;20127;-65
2022/11/27 03:00:51;;;;;;;15.90;7.43;;;4.00;99.90;;;;;;5099360;28;20093;-65
2022/11/27 03:03:30;;;;;;;13.18;7.18;;;3.90;99.90;;;;;;5098782;28;20052;-65
2022/11/27 03:06:02;;;;;;;16.98;7.65;;;3.90;99.90;;;;;;5098694;28;20032;-65
2022/11/27 03:08:29;;;;;;;13.77;7.72;;;3.90;99.90;;;;;;5098818;28;20031;-65
2022/11/27 03:11:09;;;;;;;13.23;6.35;;;3.90;99.90;;;;;;5099142;28;20020;-65
2022/11/27 03:13:43;;;;;;;20.15;8.45;;;3.90;99.90;;;;;;5080498;28;20309;-65
2022/11/27 03:16:34;;;;;;;14.88;7.50;;;3.90;99.90;;;;;;5098425;28;20428;-65
2022/11/27 03:19:31;;;;;;;16.90;7.97;;;3.80;99.90;;;;;;5099350;28;20290;-65
2022/11/27 03:21:59;;;;;;;;;;;3.80;99.90;;;;;;5080832;28;20052;-65
2022/11/27 03:24:28;;;;;;;15.05;8.00;;;3.80;99.90;;;;;;5098627;28;19939;-65
2022/11/27 03:26:59;;;;;;;19.48;9.02;;;3.80;99.90;;;;;;5098253;28;20031;-65
2022/11/27 03:29:40;;;;;;;17.30;8.00;;;3.70;99.90;;;;;;5098948;28;20020;-65
2022/11/27 03:32:07;;;;;;;18.83;8.02;;;3.70;99.90;;;;;;5098009;28;20114;-65
2022/11/27 03:34:35;;;;;;;19.10;8.57;;;3.70;99.90;;;;;;5097998;28;20078;-65
2022/11/27 03:37:04;;;;;;;17.23;8.57;;;3.60;99.90;;;;;;5080060;28;20368;-65
2022/11/27 03:39:32;;;;;;;19.25;8.90;;;3.60;99.90;;;;;;5098575;28;20058;-65
2022/11/27 03:42:23;;;;;;;17.50;9.32;;;3.50;99.90;;;;;;5098242;28;20047;-65
2022/11/27 03:45:21;;;;;;;19.55;9.50;;;3.40;99.90;;;;;;5098006;28;20032;-65
2022/11/27 03:48:27;;;;;;;16.75;8.65;;;3.30;99.90;;;;;;5098486;28;20380;-65
2022/11/27 03:51:12;;;;;;;18.98;9.70;;;3.20;99.90;;;;;;5098094;28;20024;-65
2022/11/27 03:54:00;;;;;;;19.40;9.55;;;3.20;99.90;;;;;;5098405;28;20024;-65
2022/11/27 03:56:43;;;;;;;20.63;9.07;;;3.20;99.90;;;;;;5098026;28;20099;-65
2022/11/27 03:59:15;;;;;;;21.23;8.52;;;3.10;99.90;;;;;;5077434;28;20063;-65
2022/11/27 04:01:42;;;;;;;23.23;9.55;;;3.00;99.90;;;;;;5077903;28;20020;-65
2022/11/27 04:04:09;;;;;;;20.58;9.15;;;3.00;99.90;;;;;;5076308;28;20043;-65
2022/11/27 04:06:37;;;;;;;21.63;9.57;;;3.00;99.90;;;;;;5076182;28;20031;-65
2022/11/27 04:09:04;;;;;;;25.45;9.50;;;3.00;99.90;;;;;;5076085;28;20090;-65
2022/11/27 04:11:32;;;;;;;20.42;9.43;;;3.00;99.90;;;;;;5077410;28;20027;-65
2022/11/27 04:13:59;;;;;;;21.67;8.73;;;3.10;99.90;;;;;;5077750;28;20017;-65
2022/11/27 04:16:26;;;;;;;22.00;8.93;;;3.10;99.90;;;;;;5077085;28;20074;-65
2022/11/27 04:18:53;;;;;;;23.60;9.23;;;3.10;99.90;;;;;;5076977;28;20020;-65
2022/11/27 04:21:21;;;;;;;21.73;9.40;;;3.10;99.90;;;;;;5077248;28;20090;-65
2022/11/27 04:23:49;;;;;;;22.40;9.40;;;3.10;99.90;;;;;;5077128;28;20104;-65
2022/11/27 04:26:16;;;;;;;22.83;9.30;;;3.10;99.90;;;;;;5076842;28;20029;-65
2022/11/27 04:28:43;;;;;;;17.35;8.82;;;3.10;99.90;;;;;;5076902;28;20025;-65
2022/11/27 04:31:11;;;;;;;21.75;10.00;;;3.20;99.90;;;;;;5075784;28;20031;-65
2022/11/27 04:33:38;;;;;;;22.75;9.68;;;3.20;99.90;;;;;;5077374;28;20070;-65
2022/11/27 04:36:06;;;;;;;23.00;10.18;;;3.20;99.90;;;;;;5077326;28;20027;-65
2022/11/27 04:38:33;;;;;;;21.92;9.63;;;3.20;99.90;;;;;;5076740;28;20382;-65
2022/11/27 04:41:00;;;;;;;19.00;9.30;;;3.30;99.90;;;;;;5077258;28;20452;-65
2022/11/27 04:43:28;;;;;;;18.20;8.93;;;3.30;99.90;;;;;;5076493;28;20372;-65
2022/11/27 04:45:55;;;;;;;22.38;8.93;;;3.40;99.90;;;;;;5077303;28;20021;-65
2022/11/27 04:48:23;;;;;;;20.05;9.02;;;3.40;99.90;;;;;;5075440;28;20029;-65
2022/11/27 04:50:50;;;;;;;22.23;9.40;;;3.40;99.90;;;;;;5075533;28;20438;-65
2022/11/27 04:53:17;;;;;;;19.83;8.88;;;3.50;99.90;;;;;;5076474;28;20024;-65
2022/11/27 04:55:44;;;;;;;20.52;8.82;;;3.40;99.90;;;;;;5076499;28;20017;-65
2022/11/27 04:58:11;;;;;;;23.35;9.88;;;3.40;99.90;;;;;;5075202;28;20337;-65
2022/11/27 05:00:39;;;;;;;19.35;9.20;;;3.40;99.90;;;;;;5076657;28;20070;-65
2022/11/27 05:03:06;;;;;;;21.23;10.13;;;3.30;99.90;;;;;;5077162;28;20062;-65
2022/11/27 05:05:34;;;;;;;20.90;8.68;;;3.20;99.90;;;;;;5076307;28;20039;-65
2022/11/27 05:08:01;;;;;;;17.08;8.65;;;3.20;99.90;;;;;;5075380;28;20029;-65
2022/11/27 05:10:29;;;;;;;16.13;8.20;;;3.20;99.90;;;;;;5076422;28;20036;-65
2022/11/27 05:12:56;;;;;;;20.27;8.02;;;3.20;99.90;;;;;;5077067;28;20042;-65
2022/11/27 05:15:24;;;;;;;17.65;8.05;;;3.20;99.90;;;;;;5076911;28;20027;-65
2022/11/27 05:17:51;;;;;;;20.63;7.70;;;3.20;99.90;;;;;;5076908;28;20028;-65
2022/11/27 05:20:19;;;;;;;18.60;8.40;;;3.20;99.90;;;;;;5076251;28;20141;-65
2022/11/27 05:22:48;;;;;;;23.08;9.35;;;3.20;99.90;;;;;;5076512;28;20017;-65
2022/11/27 05:25:15;;;;;;;20.48;8.20;;;3.30;99.90;;;;;;5076250;28;20025;-65
2022/11/27 05:27:43;;;;;;;17.52;8.02;;;3.40;99.90;;;;;;5076214;28;20046;-65
2022/11/27 05:30:10;;;;;;;16.70;7.65;;;3.40;99.90;;;;;;5076500;28;20344;-65
2022/11/27 05:32:38;;;;;;;20.70;6.82;;;3.40;99.90;;;;;;5075327;28;20298;-65
2022/11/27 05:35:06;;;;;;;17.35;7.68;;;3.50;99.90;;;;;;5075995;28;20021;-65
2022/11/27 05:37:33;;;;;;;17.50;7.55;;;3.50;99.90;;;;;;5076190;28;20044;-65
2022/11/27 05:40:01;;;;;;;18.42;8.10;;;3.50;99.90;;;;;;5075064;28;20016;-65
2022/11/27 05:42:28;;;;;;;13.07;6.45;;;3.50;99.90;;;;;;5076775;28;20028;-65
2022/11/27 05:44:56;;;;;;;18.25;8.30;;;3.60;99.90;;;;;;5076672;28;20021;-65
2022/11/27 05:47:23;;;;;;;22.27;7.40;;;3.60;99.90;;;;;;5076037;28;20031;-65
2022/11/27 05:49:51;;;;;;;16.67;7.30;;;3.60;99.90;;;;;;5075016;28;20328;-65
2022/11/27 05:52:18;;;;;;;16.90;7.95;;;3.60;99.90;;;;;;5076691;28;20021;-65
2022/11/27 05:54:46;;;;;;;18.02;7.78;;;3.60;99.90;;;;;;5076346;28;20051;-65
2022/11/27 05:57:13;;;;;;;15.07;7.00;;;3.60;99.90;;;;;;5084527;28;20051;-65
2022/11/27 05:59:40;;;;;;;17.27;7.85;;;3.50;99.90;;;;;;5100546;28;20097;-65
2022/11/27 06:02:07;;;;;;;14.80;6.60;;;3.50;99.90;;;;;;5100494;28;20020;-65
2022/11/27 06:04:35;;;;;;;23.15;7.70;;;3.50;99.90;;;;;;5100654;28;20312;-65
2022/11/27 06:07:03;;;;;;;15.60;7.28;;;3.40;99.90;;;;;;5100405;28;20047;-65
2022/11/27 06:09:30;;;;;;;18.33;7.80;;;3.40;99.90;;;;;;5099806;28;20431;-65
2022/11/27 06:11:57;;;;;;;20.73;9.18;;;3.30;99.90;;;;;;5099731;28;20028;-65
2022/11/27 06:14:24;;;;;;;16.75;7.80;;;3.30;99.90;;;;;;5099666;28;20107;-65
2022/11/27 06:16:52;;;;;;;18.95;7.55;;;3.40;99.90;;;;;;5100181;28;20023;-65
2022/11/27 06:19:20;;;;;;;18.08;7.38;;;3.30;99.90;;;;;;5081702;28;20024;-65
2022/11/27 06:21:47;;;;;;;18.80;7.32;;;3.30;99.90;;;;;;5081588;28;20321;-65
2022/11/27 06:24:14;;;;;;;19.63;8.90;;;3.20;99.90;;;;;;5099594;28;20031;-65
2022/11/27 06:26:42;;;;;;;18.35;7.15;;;3.20;99.90;;;;;;5100000;28;20051;-65
2022/11/27 06:29:09;;;;;;;18.23;8.00;;;3.10;99.90;;;;;;5081663;28;20028;-65
2022/11/27 06:31:37;;;;;;;14.25;7.32;;;3.10;99.90;;;;;;5081443;28;20044;-65
2022/11/27 06:34:05;;;;;;;17.77;7.97;;;3.20;99.90;;;;;;5099743;28;20153;-65
2022/11/27 06:36:36;;;;;;;17.67;7.95;;;3.20;99.90;;;;;;5099309;28;20365;-65
2022/11/27 06:39:05;;;;;;;17.30;8.23;;;3.20;99.90;;;;;;5099691;28;20308;-65
2022/11/27 06:41:33;;;;;;;17.00;7.18;;;3.10;99.90;;;;;;5099191;28;20110;-65
2022/11/27 06:44:01;;;;;;;16.70;8.63;;;3.10;99.90;;;;;;5099182;28;20023;-65
2022/11/27 06:46:29;;;;;;;16.08;7.78;;;3.00;99.90;;;;;;5099669;28;20103;-65
2022/11/27 06:48:57;;;;;;;19.52;7.22;;;3.00;99.90;;;;;;5099605;28;20095;-65
2022/11/27 06:51:26;;;;;;;15.57;7.35;;;3.00;99.90;;;;;;5081003;28;20140;-65
2022/11/27 06:53:54;;;;;;;21.63;8.73;;;3.00;99.90;;;;;;5099409;28;20024;-65
2022/11/27 06:56:26;;;;;;;18.17;7.78;;;3.00;99.90;;;;;;5098876;28;20017;-65
2022/11/27 06:58:56;;;;;;;21.92;8.60;;;3.00;99.90;;;;;;5098992;28;20119;-65
2022/11/27 07:01:27;;;;;;;17.55;7.53;;;3.00;99.90;;;;;;5098663;28;20055;-65
2022/11/27 07:03:56;;;;;;;17.50;7.75;;;3.00;99.90;;;;;;5098689;28;20035;-65
2022/11/27 07:06:25;;;;;;;18.92;7.80;;;3.10;99.90;;;;;;5080214;28;20366;-65
2022/11/27 07:08:54;;;;;;;15.88;7.07;;;3.00;99.90;;;;;;5099341;28;20477;-65
2022/11/27 07:11:27;;;;;;;27.30;8.40;;;3.00;99.90;;;;;;5098590;28;20048;-66
2022/11/27 07:13:57;;;;;;;17.42;7.78;;;3.10;99.90;;;;;;5098464;28;20027;-66
2022/11/27 07:16:24;;;;;;;20.05;9.07;;;3.10;99.90;;;;;;5099035;28;20051;-67
2022/11/27 07:18:55;;;;;;;14.60;7.22;;;3.10;99.90;;;;;;5098597;28;20026;-68
2022/11/27 07:21:22;;;;;;;24.23;10.02;;;3.10;99.90;;;;;;5098346;28;20020;-67
2022/11/27 07:23:50;;;;;;;20.17;8.10;;;3.10;99.90;;;;;;5098890;28;20020;-68
2022/11/27 07:26:23;;;;;;;21.00;8.48;;;3.10;99.90;;;;;;5098821;28;20020;-68
2022/11/27 07:28:51;;;;;;;20.20;8.63;;;3.10;99.90;;;;;;5098832;28;20047;-71
2022/11/27 07:31:22;;;;;;;17.00;8.55;;;3.10;99.90;;;;;;5080392;28;20074;-68
2022/11/27 07:33:51;;;;;;;18.23;7.78;;;3.10;99.90;;;;;;5098222;28;20040;-68
2022/11/27 07:36:24;;;;;;;17.77;7.68;;;3.20;99.90;;;;;;5098328;28;20063;-68
2022/11/27 07:38:51;;;;;;;21.52;9.05;;;3.20;99.90;;;;;;5098361;28;20021;-70
2022/11/27 07:41:19;;;;;;;16.63;7.38;;;3.30;99.90;;;;;;5079281;28;20021;-70
2022/11/27 07:43:47;;;;;;;17.77;8.25;;;3.40;99.90;;;;;;5080154;28;20032;-71
2022/11/27 07:46:21;;;;;;;21.00;8.90;;;3.40;99.90;;;;;;5097901;28;20039;-73
2022/11/27 07:48:49;;;;;;;19.80;8.98;;;3.50;99.90;;;;;;5098062;28;20028;-71
2022/11/27 07:51:19;;;;;;;17.67;7.15;;;3.60;99.90;;;;;;5097793;28;20028;-73
2022/11/27 07:53:47;;;;;;;19.92;8.00;;;3.60;99.90;;;;;;5079708;28;20024;-73
2022/11/27 07:56:15;;;;;;;13.10;6.88;;;3.70;99.90;;;;;;5079716;28;20047;-74
2022/11/27 07:58:43;;;;;;;15.23;6.72;;;3.70;99.90;;;;;;5076126;28;20063;-75
2022/11/27 08:01:15;;;;;;;17.20;6.82;;;3.80;99.90;;;;;;5076254;28;20039;-75
2022/11/27 08:03:43;;;;;;;11.88;6.85;;;3.90;99.90;;;;;;5077561;28;21938;-75
2022/11/27 08:06:22;;;;;;;13.85;6.57;;;4.00;99.90;;;;;;5077258;28;20024;-71
2022/11/27 08:08:50;;;;;;;17.80;6.53;;;4.00;99.90;;;;;;5076167;28;20309;-77
2022/11/27 08:11:19;;;;;;;14.50;6.63;;;4.10;99.90;;;;;;5076106;28;20424;-72
2022/11/27 08:13:47;;;;;;;15.95;7.60;;;4.10;99.90;;;;;;5077770;28;20067;-73
2022/11/27 08:16:15;;;;;;;12.88;6.20;;;4.20;99.90;;;;;;5077448;28;20021;-72
2022/11/27 08:18:42;;;;;;;17.30;6.45;;;4.30;99.90;;;;;;5076684;28;20115;-72
2022/11/27 08:21:10;;;;;;;15.18;6.25;;;4.30;99.90;;;;;;5075922;28;20111;-71
2022/11/27 08:23:38;;;;;;;16.33;6.88;;;4.30;99.90;;;;;;5077146;28;20492;-71
2022/11/27 08:26:06;;;;;;;13.30;7.18;;;4.30;99.90;;;;;;5077470;28;20111;-74
2022/11/27 08:28:34;;;;;;;18.92;7.28;;;4.30;99.90;;;;;;5059223;28;20025;-68
2022/11/27 08:31:03;;;;;;;16.17;6.78;;;4.40;99.90;;;;;;5076763;28;20024;-72
2022/11/27 08:33:30;;;;;;;20.23;6.63;;;4.40;99.90;;;;;;5076917;28;20024;-72
2022/11/27 08:35:57;;;;;;;18.48;6.35;;;4.50;99.90;;;;;;5077094;28;20047;-72
2022/11/27 08:38:25;;;;;;;17.10;7.05;;;4.50;99.90;;;;;;5076959;28;20059;-71
2022/11/27 08:41:00;;;;;;;16.63;7.47;;;4.50;99.90;;;;;;5076706;28;20439;-72
2022/11/27 08:43:28;;;;;;;15.55;7.18;;;4.50;99.90;;;;;;5076940;28;20021;-69
2022/11/27 08:45:55;;;;;;;13.63;6.53;;;4.50;99.90;;;;;;5076657;28;20472;-71
2022/11/27 08:48:24;;;;;;;16.55;6.95;;;4.50;99.90;;;;;;5076771;28;20090;-74
2022/11/27 08:50:52;;;;;;;14.10;7.40;;;4.50;99.90;;;;;;5076588;28;20439;-73
2022/11/27 08:53:20;;;;;;;17.77;7.00;;;4.60;99.90;;;;;;5077322;28;20025;-72
2022/11/27 08:55:47;;;;;;;14.70;7.13;;;4.60;99.90;;;;;;5075495;28;20025;-72
2022/11/27 08:58:15;;;;;;;11.82;6.97;;;4.60;99.90;;;;;;5089251;28;20072;-72
2022/11/27 09:00:42;;;;;;;15.25;6.43;;;4.60;99.90;;;;;;5097257;28;20099;-74
2022/11/27 09:03:11;;;;;;;13.65;6.78;;;4.70;99.90;;;;;;5096726;28;20024;-75
2022/11/27 09:05:43;;;;;;;16.67;7.47;;;4.80;99.90;;;;;;5096636;28;20024;-69
2022/11/27 09:08:15;;;;;;;13.32;6.78;;;4.80;99.90;;;;;;5097360;28;20028;-69
2022/11/27 09:10:44;;;;;;;7.68;4.47;;;4.90;99.90;;;;;;5097453;28;20020;-69
2022/11/27 09:13:11;;;;;;;12.23;5.82;;;5.00;99.90;;;;;;5097066;28;20020;-70
2022/11/27 09:15:38;;;;;;;18.35;7.13;;;5.00;99.90;;;;;;5097104;28;20016;-71
2022/11/27 09:18:06;;;;;;;14.48;6.25;;;5.00;99.90;;;;;;5097267;28;20016;-72
2022/11/27 09:20:33;;;;;;;14.20;6.95;;;5.10;99.90;;;;;;5096787;28;20031;-72
2022/11/27 09:23:01;;;;;;;15.13;5.93;;;5.10;99.90;;;;;;5078542;28;20027;-71
2022/11/27 09:25:29;;;;;;;14.30;6.32;;;5.10;99.90;;;;;;5096530;28;20069;-72
2022/11/27 09:27:56;;;;;;;10.93;6.38;;;5.20;99.90;;;;;;5097018;28;20491;-74
2022/11/27 09:30:23;;;;;;;11.90;5.78;;;5.30;99.90;;;;;;5100595;28;20023;-73
2022/11/27 09:32:51;;;;;;;17.48;6.07;;;5.40;99.90;;;;;;5101082;28;20107;-70
2022/11/27 09:35:19;;;;;;;12.48;5.85;;;5.50;99.90;;;;;;5100459;28;20186;-68
2022/11/27 09:37:46;;;;;;;12.50;6.97;;;5.60;99.90;;;;;;5100897;28;20024;-74
2022/11/27 09:40:16;;;;;;;11.45;5.45;;;5.60;99.90;;;;;;5082401;28;20479;-75
2022/11/27 09:43:04;;;;;;;12.85;5.18;;;5.80;99.90;;;;;;5100685;28;20020;-74
2022/11/27 09:45:32;;;;;;;15.20;5.85;;;5.90;99.90;;;;;;5100265;28;20024;-86
2022/11/27 09:48:07;;;;;;;10.95;6.20;;;6.00;99.90;;;;;;5082285;28;20080;-73
2022/11/27 09:50:49;;;;;;;16.42;5.70;;;6.00;99.90;;;;;;5082102;28;20447;-72
2022/11/27 09:53:43;;;;;;;13.00;5.85;;;6.20;99.90;;;;;;5100302;28;20032;-81
2022/11/27 09:56:16;;;;;;;9.52;6.00;;;6.30;99.90;;;;;;5082121;28;20028;-79
2022/11/27 09:58:56;;;;;;;21.02;8.88;;;6.30;99.90;;;;;;5081888;28;20043;-84
2022/11/27 10:01:32;;;;;;;12.95;5.97;;;6.40;99.90;;;;;;5100172;28;20081;-73
2022/11/27 10:04:02;;;;;;;;;;;6.40;99.90;;;;;;5100663;28;20027;-72
2022/11/27 10:06:38;;;;;;;13.10;5.05;;;6.40;99.90;;;;;;5100190;28;19904;-74
2022/11/27 10:09:30;;;;;;;14.93;5.90;;;6.50;99.90;;;;;;5100457;28;20020;-75
2022/11/27 10:12:25;;;;;;;11.75;5.72;;;6.50;99.90;;;;;;5100060;28;20020;-74
2022/11/27 10:14:56;;;;;;;10.73;5.00;;;6.60;99.90;;;;;;5081622;28;20111;-75
2022/11/27 10:17:51;;;;;;;13.55;5.18;;;6.70;99.90;;;;;;5099672;28;20023;-73
2022/11/27 10:20:42;;;;;;;12.02;5.38;;;6.80;99.90;;;;;;5099515;28;20019;-73
2022/11/27 10:23:23;;;;;;;12.50;6.07;;;6.80;99.90;;;;;;5099736;28;20024;-74
2022/11/27 10:26:13;;;;;;;10.63;4.97;;;6.90;99.90;;;;;;5100035;28;20450;-70
2022/11/27 10:28:45;;;;;;;9.77;4.65;;;7.00;99.90;;;;;;5099481;28;20428;-69
2022/11/27 10:31:23;;;;;;;9.63;4.78;;;7.00;99.90;;;;;;5099372;28;20024;-73
2022/11/27 10:34:02;;;;;;;13.45;4.80;;;7.10;99.90;;;;;;5099581;28;20095;-73
2022/11/27 10:36:46;;;;;;;11.98;5.45;;;7.20;99.90;;;;;;5099310;28;20026;-74
2022/11/27 10:39:44;;;;;;;10.20;4.95;;;7.30;99.90;;;;;;5099196;28;20024;-72
2022/11/27 10:42:40;;;;;;;12.98;4.53;;;7.30;99.90;;;;;;5098834;28;20065;-70
2022/11/27 10:45:25;;;;;;;10.10;5.85;;;7.40;99.90;;;;;;5072576;28;20132;-81
2022/11/27 10:47:53;;;;;;;8.07;4.22;;;7.40;99.90;;;;;;5099537;28;20081;-72
2022/11/27 10:50:20;;;;;;;9.55;4.47;;;7.50;99.90;;;;;;5099008;28;20055;-72
2022/11/27 10:53:00;;;;;;;9.52;4.13;;;7.50;99.90;;;;;;5081411;28;20386;-73
2022/11/27 10:55:46;;;;;;;10.85;4.38;;;7.60;99.90;;;;;;5098991;28;20028;-74
2022/11/27 10:58:27;;;;;;;9.65;4.40;;;7.70;99.90;;;;;;5099066;28;20048;-72
2022/11/27 11:01:07;;;;;;;12.98;4.53;;;7.70;99.90;;;;;;5098891;28;20016;-71
2022/11/27 11:03:35;;;;;;;7.95;4.03;;;7.80;99.90;;;;;;5099036;28;20051;-72
2022/11/27 11:06:19;;;;;;;7.70;3.95;;;7.80;99.90;;;;;;5080818;28;20024;-73
2022/11/27 11:08:47;;;;;;;9.38;3.38;;;7.80;99.90;;;;;;5098938;28;20020;-74
2022/11/27 11:11:25;;;;;;;6.00;3.55;;;7.90;99.90;;;;;;5098680;28;20030;-73
2022/11/27 11:13:54;;;;;;;9.07;3.92;;;7.90;99.90;;;;;;5099180;28;20023;-72
2022/11/27 11:16:24;;;;;;;11.00;3.60;;;7.90;99.90;;;;;;5098595;28;20020;-72
2022/11/27 11:18:53;;;;;;;5.55;3.35;;;8.00;99.90;;;;;;5080717;28;20047;-78
2022/11/27 11:21:30;;;;;;;9.38;3.42;;;8.00;99.90;;;;;;5080661;28;20055;-73
2022/11/27 11:24:22;;;;;;;11.52;3.55;;;8.00;99.90;;;;;;5098746;28;20047;-73
2022/11/27 11:26:56;;;;;;;6.60;2.92;;;8.10;99.90;;;;;;5098661;28;20077;-73
2022/11/27 11:29:44;;;;;;;9.45;3.85;;;8.10;99.90;;;;;;5080278;28;20028;-78
2022/11/27 11:32:38;;;;;;;7.85;3.50;;;8.20;99.90;;;;;;5098523;28;20023;-71
2022/11/27 11:35:31;;;;;;;9.00;3.95;;;8.20;99.90;;;;;;5098106;28;20416;-71
2022/11/27 11:38:00;;;;;;;8.52;3.67;;;8.30;99.90;;;;;;5098200;28;20028;-72
2022/11/27 11:40:36;;;;;;;18.17;4.13;;;8.40;99.90;;;;;;5098641;28;20020;-69
2022/11/27 11:43:27;;;;;;;9.07;4.03;;;8.50;99.90;;;;;;5098219;28;20031;-69
2022/11/27 11:46:07;;;;;;;9.77;4.40;;;8.50;99.90;;;;;;5097930;28;20101;-70
2022/11/27 11:48:36;;;;;;;16.38;5.28;;;8.50;99.90;;;;;;5097831;28;20109;-69
2022/11/27 11:51:22;;;;;;;10.98;5.00;;;8.50;99.90;;;;;;5097612;28;20028;-72
2022/11/27 11:54:12;;;;;;;5.63;3.53;;;8.60;99.90;;;;;;5098497;28;20412;-72
2022/11/27 11:56:44;;;;;;;6.70;3.28;;;8.60;99.90;;;;;;5098759;28;20051;-69
2022/11/27 11:59:21;;;;;;;9.13;3.35;;;8.60;99.90;;;;;;5077707;28;20037;-69
2022/11/27 12:02:05;;;;;;;6.93;3.42;;;8.60;99.90;;;;;;5078056;28;20012;-69
2022/11/27 12:05:08;;;;;;;8.25;3.38;;;8.50;99.90;;;;;;5077232;28;20498;-69
2022/11/27 12:07:59;;;;;;;9.05;3.60;;;8.50;99.90;;;;;;5052249;28;20037;-69
2022/11/27 12:10:48;;;;;;;8.68;4.03;;;8.50;99.90;;;;;;5077726;28;20025;-69
2022/11/27 12:13:34;;;;;;;9.43;3.35;;;8.60;99.90;;;;;;5078076;28;20017;-69
2022/11/27 12:16:24;;;;;;;6.07;3.50;;;8.50;99.90;;;;;;5077056;28;20012;-69
2022/11/27 12:19:08;;;;;;;10.52;3.33;;;8.50;99.90;;;;;;5077471;28;20051;-69
2022/11/27 12:22:11;;;;;;;6.53;3.17;;;8.60;99.90;;;;;;5077495;28;20017;-69
2022/11/27 12:25:03;;;;;;;8.88;3.67;;;8.60;99.90;;;;;;5077225;28;20051;-69
2022/11/27 12:28:06;;;;;;;8.48;3.60;;;8.60;99.90;;;;;;5077474;28;20025;-68
2022/11/27 12:30:56;;;;;;;5.07;2.78;;;8.60;99.90;;;;;;5077397;28;20356;-68
2022/11/27 12:33:32;;;;;;;7.43;3.33;;;8.60;99.90;;;;;;5077411;28;20039;-76
2022/11/27 12:36:41;;;;;;;6.00;2.85;;;8.70;99.90;;;;;;5076378;28;20059;-69
2022/11/27 12:39:33;;;;;;;10.15;3.35;;;8.70;99.90;;;;;;5076995;28;20023;-68
2022/11/27 12:42:33;;;;;;;7.35;2.95;;;8.70;99.90;;;;;;5077099;28;20040;-71
2022/11/27 12:45:18;;;;;;;12.10;4.40;;;8.80;99.90;;;;;;5076441;28;20074;-69
2022/11/27 12:48:01;;;;;;;4.82;2.25;;;8.80;99.90;;;;;;5058597;28;20024;-67
2022/11/27 12:50:44;;;;;;;9.82;2.40;;;8.80;99.90;;;;;;5076475;28;20483;-67
2022/11/27 12:54:03;;;;;;;11.40;3.85;;;8.90;99.90;;;;;;5058838;28;20028;-68
2022/11/27 12:56:38;;;;;;;8.60;2.83;;;8.90;99.90;;;;;;5032048;28;20108;-69
2022/11/27 12:59:26;;;;;;;8.75;3.58;;;8.90;99.90;;;;;;5095750;28;20044;-69
2022/11/27 13:02:09;;;;;;;6.05;2.25;;;8.90;99.90;;;;;;5097143;28;20016;-69
2022/11/27 13:04:52;;;;;;;5.15;2.60;;;8.90;99.90;;;;;;5096471;28;20024;-69
2022/11/27 13:07:28;;;;;;;7.47;2.45;;;8.90;99.90;;;;;;5096731;28;20020;-69
2022/11/27 13:10:06;;;;;;;11.75;2.78;;;8.90;99.90;;;;;;5097189;28;20016;-72
2022/11/27 13:12:43;;;;;;;9.00;3.08;;;8.90;99.90;;;;;;5095746;28;20051;-69
2022/11/27 13:15:52;;;;;;;6.47;2.58;;;8.80;99.90;;;;;;5078508;28;20028;-69
2022/11/27 13:18:38;;;;;;;5.07;2.47;;;8.80;99.90;;;;;;5097118;28;20320;-69
2022/11/27 13:21:15;;;;;;;8.10;2.50;;;8.80;99.90;;;;;;5097055;28;20024;-69
2022/11/27 13:23:43;;;;;;;8.07;2.42;;;8.80;99.90;;;;;;5097234;28;20028;-69